sensor_id;sensor_type;location;lat;lon;timestamp;temperature;humidity
16253;DHT22;8234;41.480;2.306;2023-03-08T00:01:31;12.90;99.90
16253;DHT22;8234;41.480;2.306;2023-03-08T00:11:35;12.80;99.90
16253;DHT22;8234;41.480;2.306;2023-03-08T00:21:40;12.60;99.90
16253;DHT22;8234;41.480;2.306;2023-03-08T00:31:44;12.10;99.90
16253;DHT22;8234;41.480;2.306;2023-03-08T00:41:49;11.70;99.90
16253;DHT22;8234;41.480;2.306;2023-03-08T00:51:53;11.20;99.90
16253;DHT22;8234;41.480;2.306;2023-03-08T01:01:59;10.90;99.90
16253;DHT22;8234;41.480;2.306;2023-03-08T01:12:04;10.70;99.90
16253;DHT22;8234;41.480;2.306;2023-03-08T01:22:09;10.80;99.90
16253;DHT22;8234;41.480;2.306;2023-03-08T01:32:13;10.80;99.90
16253;DHT22;8234;41.480;2.306;2023-03-08T01:42:19;10.50;99.90
16253;DHT22;8234;41.480;2.306;2023-03-08T01:52:26;10.30;99.90
16253;DHT22;8234;41.480;2.306;2023-03-08T02:02:36;10.20;99.90
16253;DHT22;8234;41.480;2.306;2023-03-08T02:12:43;10.00;99.90
16253;DHT22;8234;41.480;2.306;2023-03-08T02:22:48;9.90;99.90
16253;DHT22;8234;41.480;2.306;2023-03-08T02:32:54;10.00;99.90
16253;DHT22;8234;41.480;2.306;2023-03-08T02:42:59;9.80;99.90
16253;DHT22;8234;41.480;2.306;2023-03-08T02:53:03;9.90;99.90
16253;DHT22;8234;41.480;2.306;2023-03-08T03:03:09;9.80;99.90
16253;DHT22;8234;41.480;2.306;2023-03-08T03:13:13;9.90;99.90
16253;DHT22;8234;41.480;2.306;2023-03-08T03:23:18;9.70;99.90
16253;DHT22;8234;41.480;2.306;2023-03-08T03:33:22;9.90;99.90
16253;DHT22;8234;41.480;2.306;2023-03-08T03:43:27;10.20;99.90
16253;DHT22;8234;41.480;2.306;2023-03-08T03:53:32;9.90;99.90
16253;DHT22;8234;41.480;2.306;2023-03-08T04:03:38;9.80;99.90
16253;DHT22;8234;41.480;2.306;2023-03-08T04:13:42;9.90;99.90
16253;DHT22;8234;41.480;2.306;2023-03-08T04:23:47;10.00;99.90
16253;DHT22;8234;41.480;2.306;2023-03-08T04:33:51;11.00;99.90
16253;DHT22;8234;41.480;2.306;2023-03-08T04:43:56;12.10;99.90
16253;DHT22;8234;41.480;2.306;2023-03-08T04:54:00;12.70;99.90
16253;DHT22;8234;41.480;2.306;2023-03-08T05:04:09;12.90;99.90
16253;DHT22;8234;41.480;2.306;2023-03-08T05:14:13;13.00;99.90
16253;DHT22;8234;41.480;2.306;2023-03-08T05:24:18;12.80;99.90
16253;DHT22;8234;41.480;2.306;2023-03-08T05:34:23;12.80;99.90
16253;DHT22;8234;41.480;2.306;2023-03-08T05:44:28;13.30;99.90
16253;DHT22;8234;41.480;2.306;2023-03-08T05:54:32;13.50;99.90
16253;DHT22;8234;41.480;2.306;2023-03-08T06:04:37;13.60;99.90
16253;DHT22;8234;41.480;2.306;2023-03-08T06:14:41;13.70;99.90
16253;DHT22;8234;41.480;2.306;2023-03-08T06:24:47;13.70;99.90
16253;DHT22;8234;41.480;2.306;2023-03-08T06:34:51;13.50;99.90
16253;DHT22;8234;41.480;2.306;2023-03-08T06:44:56;13.50;99.90
16253;DHT22;8234;41.480;2.306;2023-03-08T06:55:00;13.50;99.90
16253;DHT22;8234;41.480;2.306;2023-03-08T07:05:06;13.70;99.90
16253;DHT22;8234;41.480;2.306;2023-03-08T07:15:11;13.90;99.90
16253;DHT22;8234;41.480;2.306;2023-03-08T07:25:19;14.10;99.90
16253;DHT22;8234;41.480;2.306;2023-03-08T07:35:23;14.60;99.90
16253;DHT22;8234;41.480;2.306;2023-03-08T07:45:28;14.90;99.90
16253;DHT22;8234;41.480;2.306;2023-03-08T07:55:32;15.10;99.90
16253;DHT22;8234;41.480;2.306;2023-03-08T08:05:37;15.50;99.90
16253;DHT22;8234;41.480;2.306;2023-03-08T08:15:41;15.80;99.90
16253;DHT22;8234;41.480;2.306;2023-03-08T08:25:47;16.10;99.90
16253;DHT22;8234;41.480;2.306;2023-03-08T08:35:51;16.20;99.90
16253;DHT22;8234;41.480;2.306;2023-03-08T08:45:58;16.40;99.90
16253;DHT22;8234;41.480;2.306;2023-03-08T08:56:10;16.70;99.90
16253;DHT22;8234;41.480;2.306;2023-03-08T09:06:29;16.90;99.90
16253;DHT22;8234;41.480;2.306;2023-03-08T09:16:34;17.10;99.90
16253;DHT22;8234;41.480;2.306;2023-03-08T09:26:39;17.40;99.90
16253;DHT22;8234;41.480;2.306;2023-03-08T09:36:43;17.60;99.90
16253;DHT22;8234;41.480;2.306;2023-03-08T09:46:52;17.90;99.90
16253;DHT22;8234;41.480;2.306;2023-03-08T09:56:59;18.00;99.90
16253;DHT22;8234;41.480;2.306;2023-03-08T10:07:17;18.50;99.90
16253;DHT22;8234;41.480;2.306;2023-03-08T10:17:27;19.10;99.90
16253;DHT22;8234;41.480;2.306;2023-03-08T10:27:37;18.80;99.90
16253;DHT22;8234;41.480;2.306;2023-03-08T10:37:41;19.70;99.90
16253;DHT22;8234;41.480;2.306;2023-03-08T10:47:54;19.70;99.90
16253;DHT22;8234;41.480;2.306;2023-03-08T10:58:00;20.30;99.90
16253;DHT22;8234;41.480;2.306;2023-03-08T11:08:17;20.80;99.90
16253;DHT22;8234;41.480;2.306;2023-03-08T11:18:29;20.70;99.90
16253;DHT22;8234;41.480;2.306;2023-03-08T11:28:45;21.10;99.90
16253;DHT22;8234;41.480;2.306;2023-03-08T11:38:57;22.50;99.90
16253;DHT22;8234;41.480;2.306;2023-03-08T11:49:17;23.30;99.90
16253;DHT22;8234;41.480;2.306;2023-03-08T11:59:30;23.80;99.90
16253;DHT22;8234;41.480;2.306;2023-03-08T12:09:50;24.20;99.90
16253;DHT22;8234;41.480;2.306;2023-03-08T12:19:55;24.60;99.90
16253;DHT22;8234;41.480;2.306;2023-03-08T12:30:05;24.30;99.90
16253;DHT22;8234;41.480;2.306;2023-03-08T12:40:28;24.90;99.90
16253;DHT22;8234;41.480;2.306;2023-03-08T12:50:39;24.20;99.90
16253;DHT22;8234;41.480;2.306;2023-03-08T13:00:43;22.70;99.90
16253;DHT22;8234;41.480;2.306;2023-03-08T13:11:00;25.60;99.90
16253;DHT22;8234;41.480;2.306;2023-03-08T13:21:23;25.00;99.90
16253;DHT22;8234;41.480;2.306;2023-03-08T13:31:31;24.50;99.90
16253;DHT22;8234;41.480;2.306;2023-03-08T13:41:36;21.20;99.90
16253;DHT22;8234;41.480;2.306;2023-03-08T13:51:42;20.90;99.90
16253;DHT22;8234;41.480;2.306;2023-03-08T14:01:47;24.30;99.90
16253;DHT22;8234;41.480;2.306;2023-03-08T14:11:58;25.20;99.90
16253;DHT22;8234;41.480;2.306;2023-03-08T14:22:11;25.60;99.90
16253;DHT22;8234;41.480;2.306;2023-03-08T14:32:28;22.80;99.90
16253;DHT22;8234;41.480;2.306;2023-03-08T14:42:40;22.40;99.90
16253;DHT22;8234;41.480;2.306;2023-03-08T14:52:48;22.90;99.90
16253;DHT22;8234;41.480;2.306;2023-03-08T15:02:52;22.80;99.90
16253;DHT22;8234;41.480;2.306;2023-03-08T15:12:58;23.80;99.90
16253;DHT22;8234;41.480;2.306;2023-03-08T15:23:05;23.80;99.90
16253;DHT22;8234;41.480;2.306;2023-03-08T15:33:11;24.10;99.90
16253;DHT22;8234;41.480;2.306;2023-03-08T15:43:15;22.50;99.90
16253;DHT22;8234;41.480;2.306;2023-03-08T15:53:20;22.40;99.90
16253;DHT22;8234;41.480;2.306;2023-03-08T16:03:36;19.80;99.90
16253;DHT22;8234;41.480;2.306;2023-03-08T16:13:42;20.40;99.90
16253;DHT22;8234;41.480;2.306;2023-03-08T16:23:46;19.20;99.90
16253;DHT22;8234;41.480;2.306;2023-03-08T16:33:51;18.70;99.90
16253;DHT22;8234;41.480;2.306;2023-03-08T16:43:55;18.10;99.90
16253;DHT22;8234;41.480;2.306;2023-03-08T16:54:00;18.30;99.90
16253;DHT22;8234;41.480;2.306;2023-03-08T17:04:05;18.00;99.90
16253;DHT22;8234;41.480;2.306;2023-03-08T17:14:12;17.50;99.90
16253;DHT22;8234;41.480;2.306;2023-03-08T17:24:16;17.80;99.90
16253;DHT22;8234;41.480;2.306;2023-03-08T17:34:22;18.70;99.90
16253;DHT22;8234;41.480;2.306;2023-03-08T17:44:26;18.70;99.90
16253;DHT22;8234;41.480;2.306;2023-03-08T17:54:31;18.70;99.90
16253;DHT22;8234;41.480;2.306;2023-03-08T18:04:35;19.00;99.90
16253;DHT22;8234;41.480;2.306;2023-03-08T18:14:40;18.50;99.90
16253;DHT22;8234;41.480;2.306;2023-03-08T18:24:44;18.60;99.90
16253;DHT22;8234;41.480;2.306;2023-03-08T18:34:49;18.50;99.90
16253;DHT22;8234;41.480;2.306;2023-03-08T18:44:53;18.10;99.90
16253;DHT22;8234;41.480;2.306;2023-03-08T18:54:59;17.80;99.90
16253;DHT22;8234;41.480;2.306;2023-03-08T19:05:03;17.70;99.90
16253;DHT22;8234;41.480;2.306;2023-03-08T19:15:09;17.60;99.90
16253;DHT22;8234;41.480;2.306;2023-03-08T19:25:13;17.40;99.90
16253;DHT22;8234;41.480;2.306;2023-03-08T19:35:19;17.20;99.90
16253;DHT22;8234;41.480;2.306;2023-03-08T19:45:24;16.80;99.90
16253;DHT22;8234;41.480;2.306;2023-03-08T19:55:30;16.90;99.90
16253;DHT22;8234;41.480;2.306;2023-03-08T20:05:38;16.60;99.90
16253;DHT22;8234;41.480;2.306;2023-03-08T20:15:44;16.10;99.90
16253;DHT22;8234;41.480;2.306;2023-03-08T20:25:48;16.00;99.90
16253;DHT22;8234;41.480;2.306;2023-03-08T20:35:56;15.60;99.90
16253;DHT22;8234;41.480;2.306;2023-03-08T20:46:02;15.30;99.90
16253;DHT22;8234;41.480;2.306;2023-03-08T20:56:14;15.50;99.90
16253;DHT22;8234;41.480;2.306;2023-03-08T21:06:19;15.00;99.90
16253;DHT22;8234;41.480;2.306;2023-03-08T21:16:27;15.00;99.90
16253;DHT22;8234;41.480;2.306;2023-03-08T21:26:32;15.20;99.90
16253;DHT22;8234;41.480;2.306;2023-03-08T21:36:38;15.00;99.90
16253;DHT22;8234;41.480;2.306;2023-03-08T21:46:42;14.60;99.90
16253;DHT22;8234;41.480;2.306;2023-03-08T21:56:49;14.50;99.90
16253;DHT22;8234;41.480;2.306;2023-03-08T22:06:54;14.70;99.90
16253;DHT22;8234;41.480;2.306;2023-03-08T22:17:00;16.30;99.90
16253;DHT22;8234;41.480;2.306;2023-03-08T22:27:04;19.00;99.90
16253;DHT22;8234;41.480;2.306;2023-03-08T22:37:10;18.70;99.90
16253;DHT22;8234;41.480;2.306;2023-03-08T22:47:14;17.80;99.90
16253;DHT22;8234;41.480;2.306;2023-03-08T22:57:19;19.30;99.90
16253;DHT22;8234;41.480;2.306;2023-03-08T23:07:23;19.50;99.90
16253;DHT22;8234;41.480;2.306;2023-03-08T23:17:29;19.70;99.90
16253;DHT22;8234;41.480;2.306;2023-03-08T23:27:33;19.60;99.90
16253;DHT22;8234;41.480;2.306;2023-03-08T23:37:38;19.40;99.90
16253;DHT22;8234;41.480;2.306;2023-03-08T23:47:42;19.20;99.90
16253;DHT22;8234;41.480;2.306;2023-03-08T23:57:47;19.50;99.90
